sensor_id;sensor_type;location;lat;lon;timestamp;P1;durP1;ratioP1;P2;durP2;ratioP2
15153;SDS011;7677;41.896;25.004;2023-07-08T00:00:19;3.92;;;3.20;;
15153;SDS011;7677;41.896;25.004;2023-07-08T00:02:47;4.88;;;4.13;;
15153;SDS011;7677;41.896;25.004;2023-07-08T00:05:16;3.97;;;3.42;;
15153;SDS011;7677;41.896;25.004;2023-07-08T00:07:44;6.00;;;4.20;;
15153;SDS011;7677;41.896;25.004;2023-07-08T00:10:12;6.22;;;4.53;;
15153;SDS011;7677;41.896;25.004;2023-07-08T00:12:41;7.35;;;4.50;;
15153;SDS011;7677;41.896;25.004;2023-07-08T00:15:08;4.78;;;4.00;;
15153;SDS011;7677;41.896;25.004;2023-07-08T00:17:36;4.80;;;3.60;;
15153;SDS011;7677;41.896;25.004;2023-07-08T00:20:09;4.63;;;4.10;;
15153;SDS011;7677;41.896;25.004;2023-07-08T00:22:40;5.82;;;4.28;;
15153;SDS011;7677;41.896;25.004;2023-07-08T00:25:08;5.30;;;3.78;;
15153;SDS011;7677;41.896;25.004;2023-07-08T00:27:35;4.55;;;4.03;;
15153;SDS011;7677;41.896;25.004;2023-07-08T00:30:08;4.63;;;3.63;;
15153;SDS011;7677;41.896;25.004;2023-07-08T00:32:44;5.63;;;4.00;;
15153;SDS011;7677;41.896;25.004;2023-07-08T00:35:11;5.85;;;4.38;;
15153;SDS011;7677;41.896;25.004;2023-07-08T00:37:40;4.65;;;3.97;;
15153;SDS011;7677;41.896;25.004;2023-07-08T00:40:13;5.10;;;4.30;;
15153;SDS011;7677;41.896;25.004;2023-07-08T00:42:42;4.53;;;3.53;;
15153;SDS011;7677;41.896;25.004;2023-07-08T00:45:18;5.88;;;4.05;;
15153;SDS011;7677;41.896;25.004;2023-07-08T00:47:51;4.75;;;3.85;;
15153;SDS011;7677;41.896;25.004;2023-07-08T00:50:18;6.18;;;3.75;;
15153;SDS011;7677;41.896;25.004;2023-07-08T00:52:47;4.72;;;4.07;;
15153;SDS011;7677;41.896;25.004;2023-07-08T00:55:14;7.88;;;4.00;;
15153;SDS011;7677;41.896;25.004;2023-07-08T00:57:42;4.45;;;3.38;;
15153;SDS011;7677;41.896;25.004;2023-07-08T01:00:11;5.10;;;3.95;;
15153;SDS011;7677;41.896;25.004;2023-07-08T01:02:41;5.15;;;4.25;;
15153;SDS011;7677;41.896;25.004;2023-07-08T01:05:11;4.55;;;3.55;;
15153;SDS011;7677;41.896;25.004;2023-07-08T01:07:40;4.07;;;3.65;;
15153;SDS011;7677;41.896;25.004;2023-07-08T01:10:12;4.53;;;3.97;;
15153;SDS011;7677;41.896;25.004;2023-07-08T01:12:42;5.30;;;3.92;;
15153;SDS011;7677;41.896;25.004;2023-07-08T01:15:10;5.85;;;4.80;;
15153;SDS011;7677;41.896;25.004;2023-07-08T01:17:38;6.07;;;3.60;;
15153;SDS011;7677;41.896;25.004;2023-07-08T01:20:09;5.15;;;3.88;;
15153;SDS011;7677;41.896;25.004;2023-07-08T01:22:40;5.95;;;4.05;;
15153;SDS011;7677;41.896;25.004;2023-07-08T01:25:08;4.75;;;3.95;;
15153;SDS011;7677;41.896;25.004;2023-07-08T01:27:45;3.95;;;3.50;;
15153;SDS011;7677;41.896;25.004;2023-07-08T01:30:15;5.35;;;3.97;;
15153;SDS011;7677;41.896;25.004;2023-07-08T01:32:57;5.03;;;3.72;;
15153;SDS011;7677;41.896;25.004;2023-07-08T01:35:27;5.18;;;3.72;;
15153;SDS011;7677;41.896;25.004;2023-07-08T01:38:03;4.55;;;3.53;;
15153;SDS011;7677;41.896;25.004;2023-07-08T01:40:33;4.85;;;3.97;;
15153;SDS011;7677;41.896;25.004;2023-07-08T01:43:01;4.25;;;3.85;;
15153;SDS011;7677;41.896;25.004;2023-07-08T01:45:31;5.20;;;3.60;;
15153;SDS011;7677;41.896;25.004;2023-07-08T01:48:04;3.80;;;3.45;;
15153;SDS011;7677;41.896;25.004;2023-07-08T01:50:33;4.95;;;3.80;;
15153;SDS011;7677;41.896;25.004;2023-07-08T01:53:05;6.85;;;3.65;;
15153;SDS011;7677;41.896;25.004;2023-07-08T01:55:35;5.10;;;3.88;;
15153;SDS011;7677;41.896;25.004;2023-07-08T01:58:02;5.05;;;3.80;;
15153;SDS011;7677;41.896;25.004;2023-07-08T02:00:30;4.50;;;4.07;;
15153;SDS011;7677;41.896;25.004;2023-07-08T02:02:59;4.70;;;4.03;;
15153;SDS011;7677;41.896;25.004;2023-07-08T02:05:27;5.45;;;4.03;;
15153;SDS011;7677;41.896;25.004;2023-07-08T02:07:54;4.05;;;3.08;;
15153;SDS011;7677;41.896;25.004;2023-07-08T02:10:23;4.55;;;3.72;;
15153;SDS011;7677;41.896;25.004;2023-07-08T02:12:52;6.40;;;4.00;;
15153;SDS011;7677;41.896;25.004;2023-07-08T02:15:31;4.30;;;3.50;;
15153;SDS011;7677;41.896;25.004;2023-07-08T02:17:59;4.70;;;3.45;;
15153;SDS011;7677;41.896;25.004;2023-07-08T02:20:26;4.40;;;3.30;;
15153;SDS011;7677;41.896;25.004;2023-07-08T02:22:59;3.80;;;3.38;;
15153;SDS011;7677;41.896;25.004;2023-07-08T02:25:31;4.15;;;3.20;;
15153;SDS011;7677;41.896;25.004;2023-07-08T02:27:58;3.97;;;3.42;;
15153;SDS011;7677;41.896;25.004;2023-07-08T02:30:26;3.90;;;3.40;;
15153;SDS011;7677;41.896;25.004;2023-07-08T02:32:53;4.95;;;3.67;;
15153;SDS011;7677;41.896;25.004;2023-07-08T02:35:24;4.03;;;3.38;;
15153;SDS011;7677;41.896;25.004;2023-07-08T02:37:52;5.50;;;3.80;;
15153;SDS011;7677;41.896;25.004;2023-07-08T02:40:23;3.67;;;3.25;;
15153;SDS011;7677;41.896;25.004;2023-07-08T02:42:52;3.42;;;2.92;;
15153;SDS011;7677;41.896;25.004;2023-07-08T02:45:28;3.60;;;2.95;;
15153;SDS011;7677;41.896;25.004;2023-07-08T02:47:57;4.07;;;3.20;;
15153;SDS011;7677;41.896;25.004;2023-07-08T02:50:24;6.15;;;3.53;;
15153;SDS011;7677;41.896;25.004;2023-07-08T02:52:52;3.75;;;3.38;;
15153;SDS011;7677;41.896;25.004;2023-07-08T02:55:22;4.32;;;3.35;;
15153;SDS011;7677;41.896;25.004;2023-07-08T02:57:49;4.10;;;3.50;;
15153;SDS011;7677;41.896;25.004;2023-07-08T03:00:18;4.57;;;3.40;;
15153;SDS011;7677;41.896;25.004;2023-07-08T03:02:45;3.28;;;2.95;;
15153;SDS011;7677;41.896;25.004;2023-07-08T03:05:13;4.15;;;3.30;;
15153;SDS011;7677;41.896;25.004;2023-07-08T03:07:46;6.05;;;3.92;;
15153;SDS011;7677;41.896;25.004;2023-07-08T03:10:17;3.97;;;3.45;;
15153;SDS011;7677;41.896;25.004;2023-07-08T03:12:44;3.65;;;3.20;;
15153;SDS011;7677;41.896;25.004;2023-07-08T03:18:03;3.38;;;3.03;;
15153;SDS011;7677;41.896;25.004;2023-07-08T03:20:38;4.78;;;3.55;;
15153;SDS011;7677;41.896;25.004;2023-07-08T03:23:07;6.28;;;3.20;;
15153;SDS011;7677;41.896;25.004;2023-07-08T03:25:37;3.90;;;2.90;;
15153;SDS011;7677;41.896;25.004;2023-07-08T03:28:05;4.72;;;3.40;;
15153;SDS011;7677;41.896;25.004;2023-07-08T03:30:40;4.15;;;3.72;;
15153;SDS011;7677;41.896;25.004;2023-07-08T03:33:12;4.00;;;3.60;;
15153;SDS011;7677;41.896;25.004;2023-07-08T03:35:39;7.93;;;3.58;;
15153;SDS011;7677;41.896;25.004;2023-07-08T03:38:10;3.88;;;3.53;;
15153;SDS011;7677;41.896;25.004;2023-07-08T03:40:37;4.40;;;3.35;;
15153;SDS011;7677;41.896;25.004;2023-07-08T03:43:05;3.92;;;3.50;;
15153;SDS011;7677;41.896;25.004;2023-07-08T03:45:32;4.93;;;3.58;;
15153;SDS011;7677;41.896;25.004;2023-07-08T03:48:01;5.05;;;3.75;;
15153;SDS011;7677;41.896;25.004;2023-07-08T03:50:28;4.07;;;3.40;;
15153;SDS011;7677;41.896;25.004;2023-07-08T03:52:56;5.05;;;3.58;;
15153;SDS011;7677;41.896;25.004;2023-07-08T03:55:23;4.07;;;3.67;;
15153;SDS011;7677;41.896;25.004;2023-07-08T03:57:50;5.75;;;3.40;;
15153;SDS011;7677;41.896;25.004;2023-07-08T04:00:22;3.50;;;3.20;;
15153;SDS011;7677;41.896;25.004;2023-07-08T04:02:51;3.78;;;3.10;;
15153;SDS011;7677;41.896;25.004;2023-07-08T04:05:21;4.10;;;3.33;;
15153;SDS011;7677;41.896;25.004;2023-07-08T04:07:49;5.20;;;3.53;;
15153;SDS011;7677;41.896;25.004;2023-07-08T04:10:17;3.38;;;3.03;;
15153;SDS011;7677;41.896;25.004;2023-07-08T04:12:48;3.55;;;3.25;;
15153;SDS011;7677;41.896;25.004;2023-07-08T04:15:15;6.03;;;3.38;;
15153;SDS011;7677;41.896;25.004;2023-07-08T04:17:45;4.25;;;3.50;;
15153;SDS011;7677;41.896;25.004;2023-07-08T04:20:13;4.05;;;3.40;;
15153;SDS011;7677;41.896;25.004;2023-07-08T04:22:45;4.47;;;3.17;;
15153;SDS011;7677;41.896;25.004;2023-07-08T04:25:17;5.72;;;3.85;;
15153;SDS011;7677;41.896;25.004;2023-07-08T04:27:50;5.20;;;3.40;;
15153;SDS011;7677;41.896;25.004;2023-07-08T04:30:20;4.57;;;3.58;;
15153;SDS011;7677;41.896;25.004;2023-07-08T04:33:00;4.18;;;3.78;;
15153;SDS011;7677;41.896;25.004;2023-07-08T04:35:27;8.38;;;4.38;;
15153;SDS011;7677;41.896;25.004;2023-07-08T04:37:58;4.93;;;3.33;;
15153;SDS011;7677;41.896;25.004;2023-07-08T04:40:26;4.53;;;4.10;;
15153;SDS011;7677;41.896;25.004;2023-07-08T04:42:55;4.45;;;4.03;;
15153;SDS011;7677;41.896;25.004;2023-07-08T04:45:25;5.35;;;3.45;;
15153;SDS011;7677;41.896;25.004;2023-07-08T04:47:53;5.10;;;3.88;;
15153;SDS011;7677;41.896;25.004;2023-07-08T04:50:23;3.80;;;2.80;;
15153;SDS011;7677;41.896;25.004;2023-07-08T04:52:51;4.45;;;3.92;;
15153;SDS011;7677;41.896;25.004;2023-07-08T04:55:21;7.15;;;3.70;;
15153;SDS011;7677;41.896;25.004;2023-07-08T04:57:50;3.72;;;3.42;;
15153;SDS011;7677;41.896;25.004;2023-07-08T05:00:17;4.03;;;3.40;;
15153;SDS011;7677;41.896;25.004;2023-07-08T05:02:45;3.75;;;3.35;;
15153;SDS011;7677;41.896;25.004;2023-07-08T05:05:15;3.92;;;3.60;;
15153;SDS011;7677;41.896;25.004;2023-07-08T05:07:43;4.20;;;3.80;;
15153;SDS011;7677;41.896;25.004;2023-07-08T05:10:18;3.60;;;3.30;;
15153;SDS011;7677;41.896;25.004;2023-07-08T05:15:55;4.32;;;3.65;;
15153;SDS011;7677;41.896;25.004;2023-07-08T05:18:23;4.45;;;3.88;;
15153;SDS011;7677;41.896;25.004;2023-07-08T05:20:50;4.30;;;3.90;;
15153;SDS011;7677;41.896;25.004;2023-07-08T05:23:18;3.97;;;3.47;;
15153;SDS011;7677;41.896;25.004;2023-07-08T05:25:47;5.40;;;4.28;;
15153;SDS011;7677;41.896;25.004;2023-07-08T05:28:15;4.28;;;3.55;;
15153;SDS011;7677;41.896;25.004;2023-07-08T05:30:42;4.72;;;3.53;;
15153;SDS011;7677;41.896;25.004;2023-07-08T05:33:09;7.05;;;4.07;;
15153;SDS011;7677;41.896;25.004;2023-07-08T05:35:37;3.83;;;3.42;;
15153;SDS011;7677;41.896;25.004;2023-07-08T05:38:04;3.40;;;3.08;;
15153;SDS011;7677;41.896;25.004;2023-07-08T05:40:31;7.15;;;3.72;;
15153;SDS011;7677;41.896;25.004;2023-07-08T05:43:00;5.35;;;3.95;;
15153;SDS011;7677;41.896;25.004;2023-07-08T05:45:27;4.13;;;3.42;;
15153;SDS011;7677;41.896;25.004;2023-07-08T05:47:55;3.80;;;3.00;;
15153;SDS011;7677;41.896;25.004;2023-07-08T05:50:22;5.63;;;3.95;;
15153;SDS011;7677;41.896;25.004;2023-07-08T05:52:50;4.57;;;3.58;;
15153;SDS011;7677;41.896;25.004;2023-07-08T05:55:17;4.45;;;3.80;;
15153;SDS011;7677;41.896;25.004;2023-07-08T05:57:44;4.20;;;3.80;;
15153;SDS011;7677;41.896;25.004;2023-07-08T06:00:13;4.53;;;3.80;;
15153;SDS011;7677;41.896;25.004;2023-07-08T06:02:41;4.20;;;3.63;;
15153;SDS011;7677;41.896;25.004;2023-07-08T06:05:08;4.57;;;3.85;;
15153;SDS011;7677;41.896;25.004;2023-07-08T06:07:36;3.45;;;3.15;;
15153;SDS011;7677;41.896;25.004;2023-07-08T06:10:03;5.25;;;4.22;;
15153;SDS011;7677;41.896;25.004;2023-07-08T06:12:31;4.43;;;3.75;;
15153;SDS011;7677;41.896;25.004;2023-07-08T06:14:59;4.05;;;3.53;;
15153;SDS011;7677;41.896;25.004;2023-07-08T06:17:27;4.00;;;3.58;;
15153;SDS011;7677;41.896;25.004;2023-07-08T06:19:55;6.47;;;3.78;;
15153;SDS011;7677;41.896;25.004;2023-07-08T06:22:22;4.10;;;3.70;;
15153;SDS011;7677;41.896;25.004;2023-07-08T06:24:49;4.88;;;3.75;;
15153;SDS011;7677;41.896;25.004;2023-07-08T06:27:16;3.35;;;2.92;;
15153;SDS011;7677;41.896;25.004;2023-07-08T06:29:45;4.10;;;3.58;;
15153;SDS011;7677;41.896;25.004;2023-07-08T06:32:12;6.85;;;3.65;;
15153;SDS011;7677;41.896;25.004;2023-07-08T06:34:41;4.57;;;3.33;;
15153;SDS011;7677;41.896;25.004;2023-07-08T06:37:08;3.97;;;3.58;;
15153;SDS011;7677;41.896;25.004;2023-07-08T06:39:36;4.88;;;3.53;;
15153;SDS011;7677;41.896;25.004;2023-07-08T06:42:04;3.70;;;3.30;;
15153;SDS011;7677;41.896;25.004;2023-07-08T06:44:32;4.10;;;3.70;;
15153;SDS011;7677;41.896;25.004;2023-07-08T06:46:59;4.85;;;3.80;;
15153;SDS011;7677;41.896;25.004;2023-07-08T06:49:26;4.25;;;3.85;;
15153;SDS011;7677;41.896;25.004;2023-07-08T06:51:55;3.90;;;3.50;;
15153;SDS011;7677;41.896;25.004;2023-07-08T06:54:25;3.83;;;3.53;;
15153;SDS011;7677;41.896;25.004;2023-07-08T06:56:53;4.15;;;3.58;;
15153;SDS011;7677;41.896;25.004;2023-07-08T06:59:20;4.05;;;3.65;;
15153;SDS011;7677;41.896;25.004;2023-07-08T07:01:48;4.22;;;3.55;;
15153;SDS011;7677;41.896;25.004;2023-07-08T07:04:15;6.60;;;4.05;;
15153;SDS011;7677;41.896;25.004;2023-07-08T07:06:43;5.13;;;3.58;;
15153;SDS011;7677;41.896;25.004;2023-07-08T07:09:11;3.55;;;3.10;;
15153;SDS011;7677;41.896;25.004;2023-07-08T07:11:39;3.58;;;3.22;;
15153;SDS011;7677;41.896;25.004;2023-07-08T07:14:06;3.38;;;3.08;;
15153;SDS011;7677;41.896;25.004;2023-07-08T07:16:34;3.70;;;3.33;;
15153;SDS011;7677;41.896;25.004;2023-07-08T07:19:01;9.60;;;3.13;;
15153;SDS011;7677;41.896;25.004;2023-07-08T07:21:28;4.20;;;3.10;;
15153;SDS011;7677;41.896;25.004;2023-07-08T07:23:55;3.80;;;3.47;;
15153;SDS011;7677;41.896;25.004;2023-07-08T07:26:24;3.75;;;3.42;;
15153;SDS011;7677;41.896;25.004;2023-07-08T07:28:51;4.60;;;3.40;;
15153;SDS011;7677;41.896;25.004;2023-07-08T07:31:18;4.28;;;3.83;;
15153;SDS011;7677;41.896;25.004;2023-07-08T07:33:46;4.43;;;3.50;;
15153;SDS011;7677;41.896;25.004;2023-07-08T07:36:13;4.90;;;4.05;;
15153;SDS011;7677;41.896;25.004;2023-07-08T07:38:40;4.93;;;3.90;;
15153;SDS011;7677;41.896;25.004;2023-07-08T07:41:07;4.28;;;3.88;;
15153;SDS011;7677;41.896;25.004;2023-07-08T07:43:37;4.25;;;3.83;;
15153;SDS011;7677;41.896;25.004;2023-07-08T07:46:04;5.57;;;3.85;;
15153;SDS011;7677;41.896;25.004;2023-07-08T07:48:33;6.80;;;3.70;;
15153;SDS011;7677;41.896;25.004;2023-07-08T07:51:00;5.78;;;3.83;;
15153;SDS011;7677;41.896;25.004;2023-07-08T07:53:28;4.07;;;3.67;;
15153;SDS011;7677;41.896;25.004;2023-07-08T07:55:55;4.22;;;3.78;;
15153;SDS011;7677;41.896;25.004;2023-07-08T07:58:23;5.15;;;3.33;;
15153;SDS011;7677;41.896;25.004;2023-07-08T08:00:52;3.50;;;3.20;;
15153;SDS011;7677;41.896;25.004;2023-07-08T08:03:19;3.50;;;3.00;;
15153;SDS011;7677;41.896;25.004;2023-07-08T08:05:47;3.53;;;3.17;;
15153;SDS011;7677;41.896;25.004;2023-07-08T08:08:15;3.38;;;3.08;;
15153;SDS011;7677;41.896;25.004;2023-07-08T08:10:42;5.63;;;4.10;;
15153;SDS011;7677;41.896;25.004;2023-07-08T08:13:09;2.90;;;2.65;;
15153;SDS011;7677;41.896;25.004;2023-07-08T08:15:37;5.20;;;3.38;;
15153;SDS011;7677;41.896;25.004;2023-07-08T08:18:06;3.50;;;3.20;;
15153;SDS011;7677;41.896;25.004;2023-07-08T08:20:33;4.30;;;3.03;;
15153;SDS011;7677;41.896;25.004;2023-07-08T08:23:00;3.65;;;3.35;;
15153;SDS011;7677;41.896;25.004;2023-07-08T08:25:28;4.60;;;3.40;;
15153;SDS011;7677;41.896;25.004;2023-07-08T08:27:55;3.83;;;3.38;;
15153;SDS011;7677;41.896;25.004;2023-07-08T08:30:22;3.53;;;3.03;;
15153;SDS011;7677;41.896;25.004;2023-07-08T08:32:49;3.92;;;3.33;;
15153;SDS011;7677;41.896;25.004;2023-07-08T08:35:18;3.85;;;3.53;;
15153;SDS011;7677;41.896;25.004;2023-07-08T08:37:45;3.95;;;3.35;;
15153;SDS011;7677;41.896;25.004;2023-07-08T08:40:13;4.63;;;3.70;;
15153;SDS011;7677;41.896;25.004;2023-07-08T08:42:43;3.25;;;2.95;;
15153;SDS011;7677;41.896;25.004;2023-07-08T08:45:16;3.55;;;3.10;;
15153;SDS011;7677;41.896;25.004;2023-07-08T08:47:46;4.20;;;3.65;;
15153;SDS011;7677;41.896;25.004;2023-07-08T08:50:30;3.83;;;2.83;;
15153;SDS011;7677;41.896;25.004;2023-07-08T08:53:04;7.45;;;3.10;;
15153;SDS011;7677;41.896;25.004;2023-07-08T08:55:32;3.50;;;3.20;;
15153;SDS011;7677;41.896;25.004;2023-07-08T08:58:02;3.15;;;2.85;;
15153;SDS011;7677;41.896;25.004;2023-07-08T09:00:42;3.15;;;2.85;;
15153;SDS011;7677;41.896;25.004;2023-07-08T09:03:27;3.97;;;3.30;;
15153;SDS011;7677;41.896;25.004;2023-07-08T09:06:04;4.25;;;2.90;;
15153;SDS011;7677;41.896;25.004;2023-07-08T09:08:37;5.70;;;3.33;;
15153;SDS011;7677;41.896;25.004;2023-07-08T09:11:07;4.95;;;4.10;;
15153;SDS011;7677;41.896;25.004;2023-07-08T09:13:40;4.88;;;3.85;;
15153;SDS011;7677;41.896;25.004;2023-07-08T09:16:09;4.45;;;3.92;;
15153;SDS011;7677;41.896;25.004;2023-07-08T09:18:43;4.60;;;3.22;;
15153;SDS011;7677;41.896;25.004;2023-07-08T09:21:17;4.47;;;4.07;;
15153;SDS011;7677;41.896;25.004;2023-07-08T09:23:46;4.43;;;3.40;;
15153;SDS011;7677;41.896;25.004;2023-07-08T09:26:16;3.90;;;3.42;;
15153;SDS011;7677;41.896;25.004;2023-07-08T09:28:46;2.83;;;2.53;;
15153;SDS011;7677;41.896;25.004;2023-07-08T09:31:20;3.65;;;3.15;;
15153;SDS011;7677;41.896;25.004;2023-07-08T09:33:50;4.88;;;3.22;;
15153;SDS011;7677;41.896;25.004;2023-07-08T09:36:22;6.07;;;3.13;;
15153;SDS011;7677;41.896;25.004;2023-07-08T09:38:50;2.80;;;2.60;;
15153;SDS011;7677;41.896;25.004;2023-07-08T09:41:31;3.65;;;2.92;;
15153;SDS011;7677;41.896;25.004;2023-07-08T09:44:03;3.40;;;2.70;;
15153;SDS011;7677;41.896;25.004;2023-07-08T09:46:35;3.10;;;2.80;;
15153;SDS011;7677;41.896;25.004;2023-07-08T09:49:14;3.53;;;3.03;;
15153;SDS011;7677;41.896;25.004;2023-07-08T09:51:44;3.38;;;2.28;;
15153;SDS011;7677;41.896;25.004;2023-07-08T09:54:11;4.18;;;3.17;;
15153;SDS011;7677;41.896;25.004;2023-07-08T09:56:40;3.10;;;2.78;;
15153;SDS011;7677;41.896;25.004;2023-07-08T09:59:11;4.75;;;2.88;;
15153;SDS011;7677;41.896;25.004;2023-07-08T10:01:40;2.70;;;2.50;;
15153;SDS011;7677;41.896;25.004;2023-07-08T10:04:08;2.75;;;2.55;;
15153;SDS011;7677;41.896;25.004;2023-07-08T10:06:35;2.50;;;2.30;;
15153;SDS011;7677;41.896;25.004;2023-07-08T10:09:04;3.97;;;3.13;;
15153;SDS011;7677;41.896;25.004;2023-07-08T10:11:36;3.15;;;2.85;;
15153;SDS011;7677;41.896;25.004;2023-07-08T10:14:07;7.30;;;3.17;;
15153;SDS011;7677;41.896;25.004;2023-07-08T10:16:36;2.88;;;2.67;;
15153;SDS011;7677;41.896;25.004;2023-07-08T10:19:07;5.18;;;2.97;;
15153;SDS011;7677;41.896;25.004;2023-07-08T10:21:36;3.95;;;2.67;;
15153;SDS011;7677;41.896;25.004;2023-07-08T10:24:13;2.63;;;2.42;;
15153;SDS011;7677;41.896;25.004;2023-07-08T10:26:49;2.78;;;2.53;;
15153;SDS011;7677;41.896;25.004;2023-07-08T10:29:23;2.92;;;2.65;;
15153;SDS011;7677;41.896;25.004;2023-07-08T10:32:12;2.60;;;2.40;;
15153;SDS011;7677;41.896;25.004;2023-07-08T10:34:47;3.10;;;2.80;;
15153;SDS011;7677;41.896;25.004;2023-07-08T10:37:18;2.85;;;2.60;;
15153;SDS011;7677;41.896;25.004;2023-07-08T10:39:57;2.45;;;2.25;;
15153;SDS011;7677;41.896;25.004;2023-07-08T10:42:41;3.28;;;2.50;;
15153;SDS011;7677;41.896;25.004;2023-07-08T10:45:13;9.52;;;2.88;;
15153;SDS011;7677;41.896;25.004;2023-07-08T10:47:45;2.88;;;2.35;;
15153;SDS011;7677;41.896;25.004;2023-07-08T10:53:24;4.63;;;2.67;;
15153;SDS011;7677;41.896;25.004;2023-07-08T10:56:04;3.15;;;2.38;;
15153;SDS011;7677;41.896;25.004;2023-07-08T10:58:43;2.60;;;2.40;;
15153;SDS011;7677;41.896;25.004;2023-07-08T11:01:30;2.88;;;2.63;;
15153;SDS011;7677;41.896;25.004;2023-07-08T11:04:21;2.88;;;2.58;;
15153;SDS011;7677;41.896;25.004;2023-07-08T11:06:59;2.65;;;2.30;;
15153;SDS011;7677;41.896;25.004;2023-07-08T11:09:32;2.95;;;2.67;;
15153;SDS011;7677;41.896;25.004;2023-07-08T11:12:07;3.35;;;3.05;;
15153;SDS011;7677;41.896;25.004;2023-07-08T11:14:40;2.85;;;2.53;;
15153;SDS011;7677;41.896;25.004;2023-07-08T11:17:12;3.33;;;2.65;;
15153;SDS011;7677;41.896;25.004;2023-07-08T11:19:45;3.13;;;2.60;;
15153;SDS011;7677;41.896;25.004;2023-07-08T11:22:17;4.35;;;2.55;;
15153;SDS011;7677;41.896;25.004;2023-07-08T11:24:46;3.75;;;2.72;;
15153;SDS011;7677;41.896;25.004;2023-07-08T11:27:19;3.25;;;2.83;;
15153;SDS011;7677;41.896;25.004;2023-07-08T11:29:52;3.35;;;2.75;;
15153;SDS011;7677;41.896;25.004;2023-07-08T11:32:23;3.03;;;2.70;;
15153;SDS011;7677;41.896;25.004;2023-07-08T11:34:53;3.13;;;2.40;;
15153;SDS011;7677;41.896;25.004;2023-07-08T11:37:28;2.97;;;2.75;;
15153;SDS011;7677;41.896;25.004;2023-07-08T11:39:57;3.20;;;2.90;;
15153;SDS011;7677;41.896;25.004;2023-07-08T11:42:35;2.65;;;2.33;;
15153;SDS011;7677;41.896;25.004;2023-07-08T11:45:06;2.88;;;2.60;;
15153;SDS011;7677;41.896;25.004;2023-07-08T11:47:37;3.75;;;2.38;;
15153;SDS011;7677;41.896;25.004;2023-07-08T11:50:15;3.65;;;2.58;;
15153;SDS011;7677;41.896;25.004;2023-07-08T11:52:50;3.50;;;2.70;;
15153;SDS011;7677;41.896;25.004;2023-07-08T11:55:23;3.25;;;2.70;;
15153;SDS011;7677;41.896;25.004;2023-07-08T11:57:55;2.53;;;2.30;;
15153;SDS011;7677;41.896;25.004;2023-07-08T12:00:24;2.88;;;2.58;;
15153;SDS011;7677;41.896;25.004;2023-07-08T12:02:53;2.63;;;2.40;;
15153;SDS011;7677;41.896;25.004;2023-07-08T12:05:31;2.55;;;2.22;;
15153;SDS011;7677;41.896;25.004;2023-07-08T12:08:00;5.18;;;2.72;;
15153;SDS011;7677;41.896;25.004;2023-07-08T12:10:31;4.00;;;2.70;;
15153;SDS011;7677;41.896;25.004;2023-07-08T12:13:02;3.03;;;2.60;;
15153;SDS011;7677;41.896;25.004;2023-07-08T12:15:31;3.55;;;2.60;;
15153;SDS011;7677;41.896;25.004;2023-07-08T12:18:00;3.83;;;2.70;;
15153;SDS011;7677;41.896;25.004;2023-07-08T12:20:30;3.30;;;2.78;;
15153;SDS011;7677;41.896;25.004;2023-07-08T12:22:58;2.88;;;2.55;;
15153;SDS011;7677;41.896;25.004;2023-07-08T12:25:31;2.95;;;2.67;;
15153;SDS011;7677;41.896;25.004;2023-07-08T12:28:01;4.40;;;2.78;;
15153;SDS011;7677;41.896;25.004;2023-07-08T12:30:30;2.58;;;2.38;;
15153;SDS011;7677;41.896;25.004;2023-07-08T12:33:08;3.03;;;2.72;;
15153;SDS011;7677;41.896;25.004;2023-07-08T12:35:40;3.63;;;2.75;;
15153;SDS011;7677;41.896;25.004;2023-07-08T12:38:13;3.63;;;2.80;;
15153;SDS011;7677;41.896;25.004;2023-07-08T12:40:45;2.88;;;2.67;;
15153;SDS011;7677;41.896;25.004;2023-07-08T12:43:16;2.85;;;2.42;;
15153;SDS011;7677;41.896;25.004;2023-07-08T12:45:46;2.95;;;2.28;;
15153;SDS011;7677;41.896;25.004;2023-07-08T12:48:14;3.55;;;3.17;;
15153;SDS011;7677;41.896;25.004;2023-07-08T12:50:41;3.53;;;2.78;;
15153;SDS011;7677;41.896;25.004;2023-07-08T12:53:13;3.05;;;2.53;;
15153;SDS011;7677;41.896;25.004;2023-07-08T12:55:41;3.30;;;2.88;;
15153;SDS011;7677;41.896;25.004;2023-07-08T12:58:12;3.25;;;2.95;;
15153;SDS011;7677;41.896;25.004;2023-07-08T13:00:44;3.65;;;3.35;;
15153;SDS011;7677;41.896;25.004;2023-07-08T13:03:14;3.22;;;2.92;;
15153;SDS011;7677;41.896;25.004;2023-07-08T13:05:47;5.60;;;3.78;;
15153;SDS011;7677;41.896;25.004;2023-07-08T13:08:16;4.18;;;3.78;;
15153;SDS011;7677;41.896;25.004;2023-07-08T13:10:52;4.00;;;3.50;;
15153;SDS011;7677;41.896;25.004;2023-07-08T13:13:25;5.70;;;3.85;;
15153;SDS011;7677;41.896;25.004;2023-07-08T13:15:55;6.22;;;4.15;;
15153;SDS011;7677;41.896;25.004;2023-07-08T13:18:28;5.03;;;3.30;;
15153;SDS011;7677;41.896;25.004;2023-07-08T13:21:03;4.78;;;3.78;;
15153;SDS011;7677;41.896;25.004;2023-07-08T13:23:35;4.20;;;3.80;;
15153;SDS011;7677;41.896;25.004;2023-07-08T13:26:12;3.88;;;3.42;;
15153;SDS011;7677;41.896;25.004;2023-07-08T13:28:47;4.65;;;3.47;;
15153;SDS011;7677;41.896;25.004;2023-07-08T13:31:19;4.22;;;3.53;;
15153;SDS011;7677;41.896;25.004;2023-07-08T13:33:51;3.72;;;3.15;;
15153;SDS011;7677;41.896;25.004;2023-07-08T13:36:21;3.53;;;3.22;;
15153;SDS011;7677;41.896;25.004;2023-07-08T13:38:49;5.65;;;3.40;;
15153;SDS011;7677;41.896;25.004;2023-07-08T13:41:19;3.72;;;3.25;;
15153;SDS011;7677;41.896;25.004;2023-07-08T13:43:49;4.35;;;3.55;;
15153;SDS011;7677;41.896;25.004;2023-07-08T13:46:33;4.97;;;3.90;;
15153;SDS011;7677;41.896;25.004;2023-07-08T13:49:02;4.43;;;3.53;;
15153;SDS011;7677;41.896;25.004;2023-07-08T13:51:39;5.25;;;3.88;;
15153;SDS011;7677;41.896;25.004;2023-07-08T13:54:19;4.30;;;3.33;;
15153;SDS011;7677;41.896;25.004;2023-07-08T13:56:51;4.45;;;4.05;;
15153;SDS011;7677;41.896;25.004;2023-07-08T13:59:24;3.92;;;3.53;;
15153;SDS011;7677;41.896;25.004;2023-07-08T14:01:55;4.05;;;3.63;;
15153;SDS011;7677;41.896;25.004;2023-07-08T14:04:27;4.65;;;3.45;;
15153;SDS011;7677;41.896;25.004;2023-07-08T14:06:58;4.00;;;3.35;;
15153;SDS011;7677;41.896;25.004;2023-07-08T14:09:28;3.58;;;3.28;;
15153;SDS011;7677;41.896;25.004;2023-07-08T14:11:56;6.63;;;3.92;;
15153;SDS011;7677;41.896;25.004;2023-07-08T14:14:25;5.13;;;3.40;;
15153;SDS011;7677;41.896;25.004;2023-07-08T14:16:54;3.92;;;3.55;;
15153;SDS011;7677;41.896;25.004;2023-07-08T14:19:23;5.20;;;3.55;;
15153;SDS011;7677;41.896;25.004;2023-07-08T14:28:53;3.42;;;2.33;;
15153;SDS011;7677;41.896;25.004;2023-07-08T14:31:22;3.15;;;2.83;;
15153;SDS011;7677;41.896;25.004;2023-07-08T14:33:51;2.97;;;2.58;;
15153;SDS011;7677;41.896;25.004;2023-07-08T14:36:22;2.83;;;2.63;;
15153;SDS011;7677;41.896;25.004;2023-07-08T14:38:49;3.83;;;2.90;;
15153;SDS011;7677;41.896;25.004;2023-07-08T14:41:17;4.82;;;2.70;;
15153;SDS011;7677;41.896;25.004;2023-07-08T14:43:44;2.80;;;2.30;;
15153;SDS011;7677;41.896;25.004;2023-07-08T14:46:11;2.33;;;2.13;;
15153;SDS011;7677;41.896;25.004;2023-07-08T14:48:40;2.15;;;1.95;;
15153;SDS011;7677;41.896;25.004;2023-07-08T14:51:07;5.78;;;2.15;;
15153;SDS011;7677;41.896;25.004;2023-07-08T14:53:34;1.95;;;1.83;;
15153;SDS011;7677;41.896;25.004;2023-07-08T14:56:03;2.85;;;2.15;;
15153;SDS011;7677;41.896;25.004;2023-07-08T14:58:39;2.78;;;2.58;;
15153;SDS011;7677;41.896;25.004;2023-07-08T15:01:08;2.30;;;2.10;;
15153;SDS011;7677;41.896;25.004;2023-07-08T15:03:42;2.45;;;2.20;;
15153;SDS011;7677;41.896;25.004;2023-07-08T15:06:09;2.20;;;2.00;;
15153;SDS011;7677;41.896;25.004;2023-07-08T15:08:37;3.53;;;2.35;;
15153;SDS011;7677;41.896;25.004;2023-07-08T15:11:05;2.67;;;1.92;;
15153;SDS011;7677;41.896;25.004;2023-07-08T15:13:32;2.03;;;1.83;;
15153;SDS011;7677;41.896;25.004;2023-07-08T15:16:00;2.40;;;2.17;;
15153;SDS011;7677;41.896;25.004;2023-07-08T15:18:27;2.22;;;1.90;;
15153;SDS011;7677;41.896;25.004;2023-07-08T15:20:56;2.15;;;2.05;;